Time;durP1;ratioP1;P1;durP2;ratioP2;P2;SDS_P1;SDS_P2;PMS_P1;PMS_P2;Temp;Humidity;BMP_temperature;BMP_pressure;BME280_temperature;BME280_humidity;BME280_pressure;Samples;Min_cycle;Max_cycle;Signal;HPM_P1;HPM_P2
2020/12/25 00:00:14;;;;;;;1.53;1.10;;;2.30;99.90;;;;;;5027864;28;20186;-71
2020/12/25 00:02:40;;;;;;;1.77;1.30;;;2.20;99.80;;;;;;5014850;28;20359;-71
2020/12/25 00:05:06;;;;;;;1.70;1.10;;;2.30;99.80;;;;;;5026553;28;20230;-72
2020/12/25 00:07:32;;;;;;;1.23;1.17;;;2.30;99.80;;;;;;5027850;28;20189;-73
2020/12/25 00:09:58;;;;;;;2.10;1.20;;;2.30;99.90;;;;;;5027447;28;20185;-72
2020/12/25 00:12:23;;;;;;;2.13;1.33;;;2.30;99.80;;;;;;5026862;28;20596;-71
2020/12/25 00:14:49;;;;;;;2.07;1.93;;;2.30;99.70;;;;;;5022532;28;20277;-71
2020/12/25 00:17:15;;;;;;;1.30;1.10;;;2.30;99.90;;;;;;5020694;28;20189;-72
2020/12/25 00:19:41;;;;;;;1.73;1.60;;;2.40;99.90;;;;;;5009524;28;20185;-72
2020/12/25 00:22:06;;;;;;;2.40;1.30;;;2.40;99.90;;;;;;5008138;28;20484;-72
2020/12/25 00:24:32;;;;;;;2.30;1.40;;;2.40;99.90;;;;;;5020428;28;20196;-72
2020/12/25 00:26:58;;;;;;;1.47;1.20;;;2.40;99.90;;;;;;5019633;28;20219;-71
2020/12/25 00:29:23;;;;;;;1.40;1.30;;;2.40;99.90;;;;;;5028457;28;20273;-71
2020/12/25 00:31:49;;;;;;;1.90;1.50;;;2.50;99.90;;;;;;5025173;28;20247;-71
2020/12/25 00:34:15;;;;;;;2.43;1.30;;;2.50;99.90;;;;;;5025590;28;20925;-71
2020/12/25 00:36:43;;;;;;;1.80;1.40;;;2.50;99.90;;;;;;5015649;28;20190;-72
2020/12/25 00:39:17;;;;;;;2.05;1.55;;;2.50;99.80;;;;;;5010553;28;20208;-72
2020/12/25 00:41:44;;;;;;;2.28;1.60;;;2.50;99.70;;;;;;5013259;28;20216;-71
2020/12/25 00:44:10;;;;;;;1.52;1.40;;;2.50;99.30;;;;;;5025715;28;20775;-69
2020/12/25 00:46:37;;;;;;;2.08;1.52;;;2.40;99.10;;;;;;5025014;28;20362;-72
2020/12/25 00:49:03;;;;;;;1.40;1.40;;;2.40;99.20;;;;;;5005901;28;20190;-72
2020/12/25 00:51:28;;;;;;;1.60;1.40;;;2.40;99.00;;;;;;5016611;28;20712;-71
2020/12/25 00:53:54;;;;;;;2.20;1.53;;;2.40;99.10;;;;;;5007664;28;20205;-72
2020/12/25 00:56:20;;;;;;;2.00;1.77;;;2.40;99.40;;;;;;5014441;28;20215;-71
2020/12/25 00:58:46;;;;;;;2.10;1.60;;;2.40;99.50;;;;;;5015687;28;20667;-71
2020/12/25 01:01:13;;;;;;;3.20;2.10;;;2.30;99.40;;;;;;5014108;28;20221;-72
2020/12/25 01:03:41;;;;;;;1.90;1.67;;;2.30;99.50;;;;;;5027478;28;20197;-72
2020/12/25 01:06:14;;;;;;;2.53;1.80;;;2.40;99.60;;;;;;5016408;28;20209;-71
2020/12/25 01:08:40;;;;;;;4.72;2.05;;;2.40;99.60;;;;;;5020784;28;20288;-71
2020/12/25 01:11:07;;;;;;;2.97;1.70;;;2.40;99.50;;;;;;5009834;28;20506;-71
2020/12/25 01:13:34;;;;;;;2.53;1.90;;;2.40;99.60;;;;;;5026777;28;20268;-71
2020/12/25 01:16:08;;;;;;;2.83;1.92;;;2.50;99.70;;;;;;5026159;28;20424;-70
2020/12/25 01:18:36;;;;;;;3.63;1.90;;;2.50;99.60;;;;;;5027578;28;20197;-72
2020/12/25 01:21:02;;;;;;;3.05;2.13;;;2.40;99.40;;;;;;5027157;28;20428;-71
2020/12/25 01:23:28;;;;;;;4.37;2.60;;;2.50;99.50;;;;;;5027202;28;20213;-72
2020/12/25 01:25:54;;;;;;;4.40;2.33;;;2.50;99.40;;;;;;5026816;28;20456;-71
2020/12/25 01:28:19;;;;;;;3.70;2.17;;;2.50;99.40;;;;;;5027003;28;20189;-72
2020/12/25 01:30:45;;;;;;;3.53;2.00;;;2.60;99.60;;;;;;5010758;28;20260;-71
2020/12/25 01:33:11;;;;;;;4.30;2.70;;;2.60;99.60;;;;;;5015837;28;20490;-71
2020/12/25 01:35:38;;;;;;;6.00;2.70;;;2.60;99.40;;;;;;5023705;28;20425;-70
2020/12/25 01:38:04;;;;;;;3.53;2.00;;;2.70;99.40;;;;;;5006697;28;20201;-70
2020/12/25 01:40:30;;;;;;;3.90;2.07;;;2.70;98.80;;;;;;5018215;28;20459;-72
2020/12/25 01:42:55;;;;;;;4.20;2.80;;;2.70;98.30;;;;;;5007124;28;21195;-71
2020/12/25 01:45:22;;;;;;;3.93;2.57;;;2.70;98.40;;;;;;5019577;28;21075;-71
2020/12/25 01:47:49;;;;;;;3.87;2.30;;;2.70;98.40;;;;;;5017040;28;20187;-71
2020/12/25 01:50:16;;;;;;;5.25;2.60;;;2.80;98.60;;;;;;5024218;28;20944;-71
2020/12/25 01:52:42;;;;;;;4.67;2.33;;;2.80;98.40;;;;;;5025876;28;20213;-72
2020/12/25 01:55:09;;;;;;;5.13;3.00;;;2.90;98.50;;;;;;5025727;28;21009;-72
2020/12/25 01:57:36;;;;;;;3.53;2.50;;;2.90;98.50;;;;;;5026429;28;20185;-72
2020/12/25 02:00:04;;;;;;;4.93;2.80;;;2.80;98.60;;;;;;5027975;28;20261;-72
2020/12/25 02:02:31;;;;;;;4.80;2.70;;;2.90;98.80;;;;;;5031541;28;20696;-71
2020/12/25 02:04:57;;;;;;;9.07;3.72;;;2.90;98.30;;;;;;5026518;28;20198;-70
2020/12/25 02:07:23;;;;;;;6.50;3.57;;;2.90;98.10;;;;;;5011753;28;20205;-72
2020/12/25 02:09:49;;;;;;;8.20;4.20;;;2.90;98.30;;;;;;5029464;28;20285;-73
2020/12/25 02:12:15;;;;;;;6.03;3.80;;;2.90;98.50;;;;;;5031534;28;20278;-72
2020/12/25 02:14:42;;;;;;;8.63;4.53;;;3.00;98.80;;;;;;5030910;28;20603;-71
2020/12/25 02:17:07;;;;;;;9.10;4.60;;;3.00;98.90;;;;;;5031534;28;20186;-71
2020/12/25 02:19:37;;;;;;;6.53;4.10;;;3.00;98.90;;;;;;5025355;28;20239;-73
2020/12/25 02:22:03;;;;;;;6.07;3.70;;;3.10;98.90;;;;;;5030888;28;20218;-72
2020/12/25 02:24:29;;;;;;;5.83;4.23;;;3.10;98.70;;;;;;5014913;28;21408;-72
2020/12/25 02:26:54;;;;;;;6.77;4.50;;;3.00;98.50;;;;;;5028031;28;20554;-71
2020/12/25 02:29:20;;;;;;;8.33;4.60;;;3.10;98.70;;;;;;5032048;28;20181;-71
2020/12/25 02:31:46;;;;;;;7.40;4.53;;;3.10;98.60;;;;;;5032142;28;20251;-72
2020/12/25 02:34:11;;;;;;;6.70;4.10;;;3.10;98.50;;;;;;5026945;28;20240;-71
2020/12/25 02:36:37;;;;;;;9.20;4.87;;;3.10;98.60;;;;;;5023753;28;20188;-71
2020/12/25 02:39:05;;;;;;;7.23;4.40;;;3.10;98.30;;;;;;5031525;28;20313;-71
2020/12/25 02:41:31;;;;;;;6.47;4.33;;;3.10;98.40;;;;;;5031316;28;20209;-70
2020/12/25 02:43:57;;;;;;;9.57;5.53;;;3.00;98.50;;;;;;5031558;28;20795;-71
2020/12/25 02:46:26;;;;;;;10.67;5.30;;;2.90;98.50;;;;;;5031195;28;20220;-71
2020/12/25 02:48:51;;;;;;;8.57;5.33;;;2.90;98.80;;;;;;5030030;28;20419;-71
2020/12/25 02:51:18;;;;;;;8.67;5.13;;;3.00;99.10;;;;;;5031251;28;20996;-72
2020/12/25 02:53:44;;;;;;;9.70;5.73;;;3.00;99.20;;;;;;5031706;28;20192;-71
2020/12/25 02:56:14;;;;;;;10.20;6.03;;;3.10;99.20;;;;;;5030789;28;20416;-70
2020/12/25 02:58:40;;;;;;;9.23;4.97;;;3.10;99.10;;;;;;5030187;28;20424;-72
2020/12/25 03:01:10;;;;;;;11.40;4.87;;;3.10;99.00;;;;;;5029757;28;20978;-70
2020/12/25 03:03:36;;;;;;;12.37;6.33;;;3.20;98.90;;;;;;5019011;28;20231;-70
2020/12/25 03:06:02;;;;;;;6.60;4.63;;;3.10;98.70;;;;;;5030630;28;20860;-70
2020/12/25 03:08:27;;;;;;;10.97;5.20;;;3.10;98.70;;;;;;5031425;28;20419;-72
2020/12/25 03:10:53;;;;;;;10.90;5.70;;;3.10;98.50;;;;;;5030521;28;20923;-71
2020/12/25 03:13:19;;;;;;;8.60;5.43;;;3.10;98.40;;;;;;5028270;28;20212;-71
2020/12/25 03:15:46;;;;;;;13.03;5.43;;;3.10;98.40;;;;;;5030595;28;20814;-70
2020/12/25 03:18:12;;;;;;;11.67;6.23;;;3.20;98.50;;;;;;5030863;28;20200;-71
2020/12/25 03:20:37;;;;;;;8.27;4.93;;;3.20;98.50;;;;;;5030720;28;20424;-71
2020/12/25 03:23:03;;;;;;;10.60;5.30;;;3.20;98.50;;;;;;5031969;28;20239;-71
2020/12/25 03:25:29;;;;;;;8.97;5.60;;;3.20;98.20;;;;;;5030569;28;20196;-71
2020/12/25 03:27:54;;;;;;;10.90;6.03;;;3.10;98.20;;;;;;5030535;28;20192;-71
2020/12/25 03:30:20;;;;;;;8.50;5.20;;;3.20;98.10;;;;;;5030490;28;20212;-71
2020/12/25 03:32:46;;;;;;;10.47;5.50;;;3.20;98.40;;;;;;5030435;28;20193;-71
2020/12/25 03:35:11;;;;;;;9.60;5.30;;;3.30;98.40;;;;;;5030318;28;20185;-72
2020/12/25 03:37:37;;;;;;;10.77;5.67;;;3.20;98.10;;;;;;5023976;28;20240;-71
2020/12/25 03:40:04;;;;;;;9.77;4.70;;;3.20;98.10;;;;;;5010709;28;20192;-72
2020/12/25 03:42:30;;;;;;;9.80;5.10;;;3.20;98.10;;;;;;5010755;28;20206;-72
2020/12/25 03:44:56;;;;;;;9.00;5.20;;;3.30;98.10;;;;;;5010758;28;20428;-70
2020/12/25 03:47:25;;;;;;;9.90;5.40;;;3.20;97.80;;;;;;5021873;28;20476;-72
2020/12/25 03:49:54;;;;;;;9.05;5.47;;;3.30;97.90;;;;;;5011151;28;20421;-72
2020/12/25 03:52:21;;;;;;;13.85;6.50;;;3.30;97.80;;;;;;5010245;28;20288;-71
2020/12/25 03:54:47;;;;;;;11.70;6.03;;;3.30;97.50;;;;;;5008662;28;20204;-71
2020/12/25 03:57:13;;;;;;;9.73;5.70;;;3.30;97.60;;;;;;5024913;28;20523;-70
2020/12/25 03:59:38;;;;;;;9.37;5.30;;;3.30;97.70;;;;;;5028406;28;20519;-71
2020/12/25 04:02:04;;;;;;;11.20;5.37;;;3.30;97.70;;;;;;5011405;28;20575;-71
2020/12/25 04:04:30;;;;;;;9.20;5.73;;;3.20;97.80;;;;;;5017175;28;20200;-72
2020/12/25 04:06:56;;;;;;;13.20;5.87;;;3.30;97.80;;;;;;5021316;28;20213;-71
2020/12/25 04:09:21;;;;;;;9.90;5.63;;;3.30;97.80;;;;;;5024167;28;20261;-72
2020/12/25 04:11:48;;;;;;;9.80;5.50;;;3.30;97.80;;;;;;5027431;28;20201;-70
2020/12/25 04:14:15;;;;;;;11.68;6.10;;;3.30;97.80;;;;;;5029570;28;20503;-72
2020/12/25 04:16:41;;;;;;;10.33;5.53;;;3.40;97.70;;;;;;5030172;28;20195;-70
2020/12/25 04:19:07;;;;;;;9.23;5.60;;;3.30;97.40;;;;;;5029824;28;20931;-71
2020/12/25 04:21:33;;;;;;;9.80;5.50;;;3.20;97.30;;;;;;5029245;28;20440;-71
2020/12/25 04:23:59;;;;;;;11.87;5.40;;;3.30;97.60;;;;;;5028741;28;20547;-72
2020/12/25 04:26:24;;;;;;;8.77;4.63;;;3.30;97.60;;;;;;5028230;28;20216;-70
2020/12/25 04:28:50;;;;;;;25.03;7.80;;;3.30;97.70;;;;;;5029665;28;20188;-71
2020/12/25 04:31:16;;;;;;;11.63;5.40;;;3.30;97.20;;;;;;5029947;28;20197;-72
2020/12/25 04:33:42;;;;;;;9.90;5.57;;;3.20;97.40;;;;;;5029802;28;20607;-70
2020/12/25 04:36:07;;;;;;;10.97;6.00;;;3.20;97.60;;;;;;5025088;28;20263;-71
2020/12/25 04:38:34;;;;;;;10.00;5.93;;;3.30;97.70;;;;;;5028357;28;20644;-72
2020/12/25 04:41:01;;;;;;;9.07;5.15;;;3.30;97.80;;;;;;5021922;28;20185;-71
2020/12/25 04:43:28;;;;;;;8.82;5.05;;;3.40;97.80;;;;;;5009535;28;20225;-71
2020/12/25 04:45:54;;;;;;;11.10;6.00;;;3.30;97.50;;;;;;5016633;28;20291;-71
2020/12/25 04:48:20;;;;;;;9.63;5.20;;;3.30;97.60;;;;;;5029518;28;20832;-71
2020/12/25 04:50:46;;;;;;;8.80;5.00;;;3.30;97.60;;;;;;5028247;28;21108;-71
2020/12/25 04:53:12;;;;;;;9.23;4.80;;;3.30;97.70;;;;;;5028070;28;20450;-71
2020/12/25 04:55:38;;;;;;;9.00;5.37;;;3.30;97.70;;;;;;5015787;28;20784;-72
2020/12/25 04:58:04;;;;;;;7.53;4.37;;;3.30;97.70;;;;;;5015015;28;20277;-70
2020/12/25 05:00:30;;;;;;;7.67;4.67;;;3.30;97.60;;;;;;5020767;28;20234;-70
2020/12/25 05:02:56;;;;;;;9.95;4.80;;;3.40;97.80;;;;;;5009308;28;20957;-70
2020/12/25 05:05:30;;;;;;;10.77;4.87;;;3.40;98.00;;;;;;5009088;28;20268;-71
2020/12/25 05:07:57;;;;;;;10.60;5.47;;;3.30;97.70;;;;;;5014755;28;20436;-71
2020/12/25 05:10:23;;;;;;;12.10;5.13;;;3.30;97.80;;;;;;5015735;28;20927;-70
2020/12/25 05:12:49;;;;;;;8.73;4.72;;;3.20;97.90;;;;;;5032736;28;20444;-71
2020/12/25 05:15:15;;;;;;;9.17;4.60;;;3.20;98.00;;;;;;5037484;28;20231;-71
2020/12/25 05:17:42;;;;;;;7.40;4.60;;;3.20;98.20;;;;;;5036468;28;20185;-70
2020/12/25 05:20:08;;;;;;;12.50;5.70;;;3.30;98.10;;;;;;5026881;28;20420;-71
2020/12/25 05:22:34;;;;;;;10.73;5.40;;;3.30;98.10;;;;;;5024283;28;20531;-71
2020/12/25 05:25:05;;;;;;;9.90;5.38;;;3.20;97.90;;;;;;5028961;28;20431;-71
2020/12/25 05:27:31;;;;;;;9.70;5.10;;;3.20;98.20;;;;;;5026578;28;20211;-70
2020/12/25 05:29:59;;;;;;;9.00;5.40;;;3.20;98.30;;;;;;5029356;28;20228;-70
2020/12/25 05:32:30;;;;;;;9.60;5.50;;;3.10;98.10;;;;;;5028865;28;20431;-71
2020/12/25 05:34:57;;;;;;;9.93;5.70;;;3.00;98.20;;;;;;5029618;28;20478;-71
2020/12/25 05:37:35;;;;;;;10.87;5.27;;;3.00;98.30;;;;;;5033393;28;20481;-69
2020/12/25 05:40:08;;;;;;;7.80;4.83;;;3.10;98.50;;;;;;5032805;28;20435;-72
2020/12/25 05:42:50;;;;;;;11.60;5.50;;;3.10;98.50;;;;;;5033696;28;20438;-71
2020/12/25 05:45:20;;;;;;;12.90;6.93;;;3.10;98.50;;;;;;5031077;28;20427;-72
2020/12/25 05:47:47;;;;;;;10.03;6.10;;;3.10;98.40;;;;;;5033253;28;20497;-70
2020/12/25 05:50:19;;;;;;;12.23;5.70;;;3.10;98.30;;;;;;5022452;28;20772;-70
2020/12/25 05:52:47;;;;;;;10.83;5.53;;;3.20;98.40;;;;;;5033094;28;20427;-71
2020/12/25 05:55:17;;;;;;;15.57;6.10;;;3.20;98.50;;;;;;5033497;28;20416;-70
2020/12/25 05:57:50;;;;;;;11.73;6.20;;;3.20;98.40;;;;;;5026131;28;20420;-69
2020/12/25 06:00:17;;;;;;;9.80;6.03;;;3.20;98.20;;;;;;5033859;28;20412;-72
2020/12/25 06:02:48;;;;;;;11.43;6.13;;;3.20;98.20;;;;;;5033118;28;20443;-71
2020/12/25 06:05:15;;;;;;;10.00;6.30;;;3.10;98.10;;;;;;5033264;28;20423;-70
2020/12/25 06:07:52;;;;;;;10.10;5.90;;;3.10;98.10;;;;;;5033316;28;20552;-70
2020/12/25 06:10:20;;;;;;;12.60;6.90;;;3.00;98.40;;;;;;5031435;28;20439;-71
2020/12/25 06:12:47;;;;;;;12.90;6.00;;;3.10;98.70;;;;;;5032566;28;20455;-70
2020/12/25 06:15:26;;;;;;;14.07;7.10;;;3.00;98.50;;;;;;5030968;28;20466;-71
2020/12/25 06:18:12;;;;;;;13.32;6.97;;;3.00;98.70;;;;;;5032303;28;20185;-70
2020/12/25 06:21:06;;;;;;;13.53;7.53;;;3.00;98.90;;;;;;5025154;28;20237;-72
2020/12/25 06:23:34;;;;;;;17.83;7.20;;;3.00;98.90;;;;;;5029176;28;20432;-71
2020/12/25 06:26:06;;;;;;;11.10;6.20;;;3.10;99.00;;;;;;5030496;28;21200;-72
2020/12/25 06:28:32;;;;;;;17.20;7.43;;;3.10;98.90;;;;;;5031649;28;20423;-71
2020/12/25 06:30:58;;;;;;;14.50;6.45;;;3.10;98.80;;;;;;5030646;28;20858;-72
2020/12/25 06:33:28;;;;;;;16.00;7.40;;;3.10;98.70;;;;;;5031646;28;20209;-72
2020/12/25 06:35:58;;;;;;;15.40;7.40;;;3.00;98.50;;;;;;5031346;28;20455;-72
2020/12/25 06:38:24;;;;;;;14.23;6.63;;;3.10;98.80;;;;;;5031346;28;20788;-72
2020/12/25 06:40:58;;;;;;;11.65;6.07;;;3.00;98.50;;;;;;5023848;28;20194;-72
2020/12/25 06:43:24;;;;;;;15.10;7.13;;;3.00;98.50;;;;;;5025114;28;20240;-72
2020/12/25 06:46:01;;;;;;;14.97;7.93;;;3.00;98.90;;;;;;5011317;28;20469;-71
2020/12/25 06:48:29;;;;;;;11.03;7.23;;;3.00;99.00;;;;;;5010389;28;20440;-71
2020/12/25 06:50:57;;;;;;;11.97;6.07;;;3.00;99.10;;;;;;5010813;28;20927;-71
2020/12/25 06:53:38;;;;;;;13.80;7.25;;;3.00;98.90;;;;;;5029217;28;20510;-70
2020/12/25 06:56:12;;;;;;;13.00;5.73;;;3.00;98.80;;;;;;5031979;28;20188;-71
2020/12/25 06:58:43;;;;;;;14.13;6.95;;;3.00;98.80;;;;;;5033424;28;20423;-70
2020/12/25 07:01:11;;;;;;;12.55;5.80;;;2.90;98.70;;;;;;5034489;28;20195;-70
2020/12/25 07:03:38;;;;;;;11.97;6.30;;;2.90;98.80;;;;;;5033552;28;20199;-71
2020/12/25 07:06:06;;;;;;;12.35;6.00;;;2.80;98.70;;;;;;5034816;28;20459;-71
2020/12/25 07:08:37;;;;;;;12.20;5.95;;;2.80;98.80;;;;;;5036031;28;20185;-71
2020/12/25 07:11:07;;;;;;;13.00;5.78;;;2.70;98.90;;;;;;5050507;28;20194;-71
2020/12/25 07:13:35;;;;;;;9.27;5.93;;;2.70;99.20;;;;;;5036947;28;20211;-71
2020/12/25 07:16:01;;;;;;;11.50;6.13;;;2.60;99.30;;;;;;5036945;28;20185;-70
2020/12/25 07:18:27;;;;;;;8.02;4.85;;;2.60;99.40;;;;;;5028513;28;20428;-71
2020/12/25 07:21:01;;;;;;;12.07;5.57;;;2.70;99.60;;;;;;5035892;28;20229;-71
2020/12/25 07:23:27;;;;;;;8.25;5.03;;;2.70;99.30;;;;;;5025727;28;20213;-70
2020/12/25 07:25:57;;;;;;;8.43;5.38;;;2.70;99.40;;;;;;5018554;28;20706;-72
2020/12/25 07:28:24;;;;;;;9.40;4.93;;;2.60;99.30;;;;;;5034889;28;20185;-73
2020/12/25 07:30:51;;;;;;;9.82;5.63;;;2.60;99.40;;;;;;5044436;28;20515;-73
2020/12/25 07:33:17;;;;;;;10.90;4.82;;;2.70;99.40;;;;;;5030102;28;20212;-72
2020/12/25 07:35:43;;;;;;;7.33;4.57;;;2.70;99.50;;;;;;5025651;28;20182;-71
2020/12/25 07:38:12;;;;;;;13.70;5.73;;;2.70;99.20;;;;;;5010472;28;20177;-72
2020/12/25 07:40:38;;;;;;;8.45;4.82;;;2.70;99.30;;;;;;5009800;28;20181;-73
2020/12/25 07:43:04;;;;;;;14.05;7.93;;;2.70;99.30;;;;;;5009109;28;20229;-72
2020/12/25 07:45:33;;;;;;;10.63;5.87;;;2.60;99.20;;;;;;5007669;28;20189;-73
2020/12/25 07:48:03;;;;;;;10.40;5.60;;;2.60;99.50;;;;;;5007333;28;21149;-73
2020/12/25 07:50:40;;;;;;;9.40;5.30;;;2.70;99.60;;;;;;5006158;28;20182;-72
2020/12/25 07:53:11;;;;;;;11.77;5.77;;;2.70;99.50;;;;;;5010225;28;20967;-72
2020/12/25 07:55:37;;;;;;;10.93;5.50;;;2.70;99.50;;;;;;5024990;28;20995;-72
2020/12/25 07:58:03;;;;;;;10.50;5.03;;;2.80;99.60;;;;;;5028608;28;20416;-73
2020/12/25 08:00:32;;;;;;;7.13;4.80;;;2.70;99.30;;;;;;5029217;28;20428;-74
2020/12/25 08:02:59;;;;;;;11.40;6.03;;;2.70;99.40;;;;;;5016495;28;20587;-74
2020/12/25 08:05:28;;;;;;;11.07;5.23;;;2.80;99.60;;;;;;5010982;28;20568;-72
2020/12/25 08:07:55;;;;;;;9.83;5.57;;;2.90;99.70;;;;;;5012541;28;20498;-73
2020/12/25 08:10:21;;;;;;;9.30;4.90;;;2.90;99.50;;;;;;5030097;28;20416;-73
2020/12/25 08:12:54;;;;;;;8.90;4.40;;;2.90;99.30;;;;;;5028434;28;20515;-73
2020/12/25 08:15:20;;;;;;;12.23;7.05;;;2.80;99.10;;;;;;5028262;28;20427;-74
2020/12/25 08:17:51;;;;;;;12.77;6.20;;;2.90;99.20;;;;;;5028135;28;20309;-72
2020/12/25 08:20:17;;;;;;;10.70;5.70;;;3.00;99.20;;;;;;5026643;28;21073;-72
2020/12/25 08:22:42;;;;;;;9.90;5.03;;;3.00;99.20;;;;;;5026601;28;20237;-72
2020/12/25 08:25:09;;;;;;;11.30;6.57;;;3.00;99.20;;;;;;5027777;28;20420;-72
2020/12/25 08:27:40;;;;;;;11.20;6.07;;;3.00;99.10;;;;;;5027690;28;20217;-73
2020/12/25 08:30:06;;;;;;;10.93;5.83;;;3.10;98.90;;;;;;5026492;28;20432;-73
2020/12/25 08:32:33;;;;;;;13.80;7.40;;;3.00;98.80;;;;;;5027477;28;20892;-73
2020/12/25 08:35:12;;;;;;;12.23;6.40;;;3.00;98.90;;;;;;5025473;28;20808;-73
2020/12/25 08:37:38;;;;;;;15.33;6.97;;;3.10;98.90;;;;;;5019959;28;20962;-72
2020/12/25 08:40:16;;;;;;;16.97;7.10;;;3.10;98.80;;;;;;5008256;28;20433;-72
2020/12/25 08:42:42;;;;;;;14.47;8.00;;;3.10;98.80;;;;;;5008624;28;20452;-73
2020/12/25 08:45:09;;;;;;;13.13;6.75;;;3.10;98.50;;;;;;5007454;28;20473;-72
2020/12/25 08:47:35;;;;;;;20.60;10.02;;;3.10;98.70;;;;;;5008515;28;20220;-72
2020/12/25 08:50:02;;;;;;;15.57;7.55;;;3.00;98.70;;;;;;5006128;28;20224;-73
2020/12/25 08:52:29;;;;;;;18.05;8.77;;;3.00;99.00;;;;;;5004627;28;20268;-72
2020/12/25 08:54:58;;;;;;;17.20;8.60;;;3.00;99.10;;;;;;5007428;28;20185;-73
2020/12/25 08:57:24;;;;;;;17.17;8.98;;;3.10;99.10;;;;;;5024431;28;20242;-73
2020/12/25 09:00:08;;;;;;;18.55;9.45;;;3.10;99.00;;;;;;5023091;28;20207;-73
2020/12/25 09:02:34;;;;;;;21.95;10.45;;;3.20;99.10;;;;;;5007464;28;20217;-73
2020/12/25 09:05:00;;;;;;;17.60;9.40;;;3.30;99.10;;;;;;5006892;28;20201;-73
2020/12/25 09:07:25;;;;;;;18.30;8.73;;;3.30;98.90;;;;;;5007195;28;20224;-73
2020/12/25 09:09:51;;;;;;;17.30;8.30;;;3.30;98.70;;;;;;5009773;28;20268;-74
2020/12/25 09:12:17;;;;;;;26.13;10.00;;;3.30;98.60;;;;;;5025436;28;20205;-74
2020/12/25 09:14:43;;;;;;;15.80;7.97;;;3.40;98.70;;;;;;5025906;28;20266;-73
2020/12/25 09:17:08;;;;;;;22.20;9.07;;;3.50;98.70;;;;;;5027182;28;20431;-73
2020/12/25 09:19:35;;;;;;;17.37;9.20;;;3.50;98.20;;;;;;5026400;28;20230;-72
2020/12/25 09:22:00;;;;;;;18.63;8.73;;;3.60;98.10;;;;;;5024966;28;20221;-71
2020/12/25 09:24:26;;;;;;;15.93;8.13;;;3.50;97.80;;;;;;5026627;28;20430;-75
2020/12/25 09:26:52;;;;;;;18.70;8.90;;;3.60;97.70;;;;;;5016061;28;20205;-74
2020/12/25 09:29:18;;;;;;;17.77;9.27;;;3.70;97.80;;;;;;5024629;28;20664;-74
2020/12/25 09:31:44;;;;;;;19.13;8.93;;;3.70;97.30;;;;;;5025399;28;20593;-73
2020/12/25 09:34:10;;;;;;;18.33;8.53;;;3.70;97.20;;;;;;5020784;28;21077;-72
2020/12/25 09:36:35;;;;;;;15.80;8.00;;;3.60;97.20;;;;;;5006113;28;20437;-72
2020/12/25 09:39:01;;;;;;;19.40;9.37;;;3.60;97.20;;;;;;5024978;28;20479;-73
2020/12/25 09:41:27;;;;;;;19.50;9.13;;;3.60;97.50;;;;;;5027015;28;20675;-72
2020/12/25 09:43:52;;;;;;;18.20;9.90;;;3.70;97.60;;;;;;5027150;28;20335;-73
2020/12/25 09:46:18;;;;;;;25.63;9.87;;;3.70;97.40;;;;;;5013662;28;20723;-72
2020/12/25 09:48:44;;;;;;;16.20;8.17;;;3.70;97.00;;;;;;5005540;28;20208;-73
2020/12/25 09:51:09;;;;;;;19.83;8.87;;;3.70;97.30;;;;;;5016933;28;20597;-73
2020/12/25 09:53:35;;;;;;;19.00;8.50;;;3.70;97.20;;;;;;5025777;28;20185;-73
2020/12/25 09:56:01;;;;;;;14.33;7.70;;;3.70;96.90;;;;;;5025944;28;20196;-72
2020/12/25 09:58:26;;;;;;;19.80;8.50;;;3.80;97.10;;;;;;5024935;28;20193;-73
2020/12/25 10:00:53;;;;;;;16.67;9.00;;;3.90;97.10;;;;;;5026527;28;20197;-72
2020/12/25 10:03:19;;;;;;;21.00;7.87;;;3.90;96.80;;;;;;5026619;28;20202;-71
2020/12/25 10:05:45;;;;;;;18.07;8.67;;;4.00;96.60;;;;;;5026154;28;20837;-72
2020/12/25 10:08:10;;;;;;;16.93;8.17;;;3.90;95.60;;;;;;5013261;28;20239;-73
2020/12/25 10:10:36;;;;;;;14.10;6.80;;;3.90;95.50;;;;;;5026569;28;20566;-73
2020/12/25 10:13:02;;;;;;;13.00;6.67;;;3.90;95.30;;;;;;5026717;28;20698;-72
2020/12/25 10:15:28;;;;;;;16.50;6.90;;;3.90;95.70;;;;;;5024386;28;20514;-72
2020/12/25 10:17:53;;;;;;;15.57;7.50;;;3.90;95.50;;;;;;5022459;28;20274;-73
2020/12/25 10:20:19;;;;;;;12.60;7.10;;;3.90;95.80;;;;;;5023810;28;20189;-72
2020/12/25 10:22:45;;;;;;;12.00;5.97;;;3.80;96.10;;;;;;5028833;28;20240;-73
2020/12/25 10:25:11;;;;;;;12.57;6.07;;;3.70;96.20;;;;;;5029709;28;20553;-73
2020/12/25 10:27:36;;;;;;;14.73;6.77;;;3.50;96.40;;;;;;5026324;28;20719;-74
2020/12/25 10:30:02;;;;;;;11.77;5.60;;;3.50;96.90;;;;;;5021581;28;20486;-74
2020/12/25 10:32:28;;;;;;;11.37;5.90;;;3.60;97.20;;;;;;5029839;28;20193;-74
2020/12/25 10:34:54;;;;;;;13.53;6.30;;;3.60;96.70;;;;;;5029603;28;20434;-72
2020/12/25 10:37:20;;;;;;;13.43;6.50;;;3.60;96.90;;;;;;5030561;28;20272;-73
2020/12/25 10:39:46;;;;;;;13.82;6.03;;;3.50;96.40;;;;;;5018724;28;20687;-72
2020/12/25 10:42:12;;;;;;;16.50;6.40;;;3.60;96.50;;;;;;5009414;28;20214;-72
2020/12/25 10:44:38;;;;;;;12.33;5.90;;;3.70;96.50;;;;;;5021066;28;20224;-73
2020/12/25 10:47:04;;;;;;;13.77;6.80;;;3.80;96.60;;;;;;5025823;28;20312;-74
2020/12/25 10:49:30;;;;;;;10.60;6.20;;;3.70;96.10;;;;;;5021507;28;20493;-73
2020/12/25 10:51:56;;;;;;;16.63;6.80;;;3.80;96.40;;;;;;5023010;28;20460;-74
2020/12/25 10:54:21;;;;;;;10.00;6.20;;;3.90;96.20;;;;;;5020479;28;20306;-73
2020/12/25 10:56:47;;;;;;;12.70;6.83;;;3.90;95.90;;;;;;5024114;28;20292;-73
2020/12/25 10:59:13;;;;;;;16.70;6.60;;;3.90;95.70;;;;;;5029310;28;20193;-73
2020/12/25 11:01:39;;;;;;;13.10;6.37;;;3.90;96.10;;;;;;5016295;28;20300;-73
2020/12/25 11:04:05;;;;;;;14.27;5.97;;;3.90;96.10;;;;;;5030727;28;20319;-72
2020/12/25 11:06:34;;;;;;;12.23;5.90;;;3.90;95.50;;;;;;5028654;28;20661;-72
2020/12/25 11:09:01;;;;;;;14.70;6.10;;;4.00;95.60;;;;;;5028766;28;20459;-73
2020/12/25 11:11:28;;;;;;;11.80;6.87;;;4.00;95.60;;;;;;5026662;28;20426;-72
2020/12/25 11:13:55;;;;;;;11.87;5.60;;;4.00;95.40;;;;;;5028949;28;20428;-73
2020/12/25 11:16:26;;;;;;;9.97;5.50;;;3.90;94.70;;;;;;5032224;28;20454;-72
2020/12/25 11:18:56;;;;;;;13.70;5.80;;;3.70;93.20;;;;;;5037081;28;20486;-73
2020/12/25 11:21:24;;;;;;;11.02;5.47;;;3.70;93.40;;;;;;5028304;28;20420;-72
2020/12/25 11:23:51;;;;;;;7.93;5.20;;;3.60;93.70;;;;;;5029304;28;20196;-72
2020/12/25 11:26:26;;;;;;;9.82;5.38;;;3.60;94.30;;;;;;5022583;28;20464;-72
2020/12/25 11:28:55;;;;;;;10.63;5.70;;;3.60;94.20;;;;;;5008451;28;20193;-73
2020/12/25 11:31:21;;;;;;;12.63;5.60;;;3.70;94.30;;;;;;5022323;28;21069;-74
2020/12/25 11:33:47;;;;;;;9.73;5.17;;;3.70;94.10;;;;;;5033306;28;20439;-73
2020/12/25 11:36:17;;;;;;;9.23;5.20;;;3.70;93.80;;;;;;5028075;28;20958;-73
2020/12/25 11:38:43;;;;;;;8.97;4.97;;;3.60;93.50;;;;;;5027989;28;20460;-72
2020/12/25 11:41:11;;;;;;;10.43;5.43;;;3.60;93.30;;;;;;5028489;28;20420;-72
2020/12/25 11:43:37;;;;;;;10.93;5.17;;;3.60;93.20;;;;;;5013929;28;20448;-73
2020/12/25 11:46:04;;;;;;;13.00;6.00;;;3.60;93.40;;;;;;5014779;28;20459;-71
2020/12/25 11:48:30;;;;;;;14.33;6.07;;;3.50;92.60;;;;;;5026809;28;20420;-73
2020/12/25 11:50:56;;;;;;;11.93;5.57;;;3.50;92.90;;;;;;5017938;28;20420;-73
2020/12/25 11:53:22;;;;;;;9.82;5.70;;;3.50;92.90;;;;;;5009779;28;20202;-72
2020/12/25 11:55:48;;;;;;;10.97;5.10;;;3.50;92.60;;;;;;5024616;28;20775;-73
2020/12/25 11:58:15;;;;;;;9.30;5.07;;;3.70;93.00;;;;;;5026750;28;20477;-74
2020/12/25 12:00:41;;;;;;;12.87;5.77;;;3.70;92.30;;;;;;5026972;28;20420;-73
2020/12/25 12:03:07;;;;;;;13.25;6.60;;;3.60;91.90;;;;;;5014617;28;20447;-74
2020/12/25 12:05:33;;;;;;;10.90;5.13;;;3.50;92.30;;;;;;5005637;28;20194;-74
2020/12/25 12:07:58;;;;;;;12.67;5.80;;;3.50;92.50;;;;;;5008068;28;20787;-73
2020/12/25 12:10:24;;;;;;;11.10;5.03;;;3.40;92.30;;;;;;5006556;28;21213;-73
2020/12/25 12:12:50;;;;;;;10.87;5.80;;;3.50;93.00;;;;;;5022983;28;20212;-73
2020/12/25 12:15:15;;;;;;;9.13;4.87;;;3.50;92.60;;;;;;5025769;28;20778;-73
2020/12/25 12:17:41;;;;;;;10.23;4.47;;;3.50;91.80;;;;;;5012819;28;20182;-74
2020/12/25 12:20:07;;;;;;;11.57;5.23;;;3.50;92.00;;;;;;5023551;28;20726;-74
2020/12/25 12:22:32;;;;;;;7.53;4.30;;;3.60;91.20;;;;;;5027083;28;20213;-74
2020/12/25 12:24:58;;;;;;;8.20;4.97;;;3.60;90.50;;;;;;5027046;28;20291;-73
2020/12/25 12:27:24;;;;;;;6.60;3.90;;;3.70;90.80;;;;;;5025503;28;20252;-73
2020/12/25 12:29:49;;;;;;;14.63;4.67;;;3.70;89.60;;;;;;5026120;28;20250;-72
2020/12/25 12:32:15;;;;;;;9.47;5.20;;;3.60;89.50;;;;;;5026659;28;20236;-73
2020/12/25 12:34:41;;;;;;;12.17;5.10;;;3.50;89.60;;;;;;5025011;28;20259;-73
2020/12/25 12:37:06;;;;;;;7.37;4.73;;;3.50;90.00;;;;;;5027767;28;20185;-73
2020/12/25 12:39:32;;;;;;;9.37;5.13;;;3.60;90.50;;;;;;5025707;28;20189;-74
2020/12/25 12:41:58;;;;;;;12.97;5.20;;;3.60;89.90;;;;;;5026979;28;20278;-74
2020/12/25 12:44:25;;;;;;;10.40;5.63;;;3.70;90.20;;;;;;5027162;28;20656;-73
2020/12/25 12:46:54;;;;;;;11.90;5.83;;;3.70;90.10;;;;;;5025999;28;20474;-74
2020/12/25 12:49:21;;;;;;;11.17;5.03;;;3.60;89.20;;;;;;5027723;28;20499;-74